sensor_id;sensor_type;location;lat;lon;timestamp;P1;durP1;ratioP1;P2;durP2;ratioP2
31594;SDS011;18200;48.726;8.892;2022-09-03T00:02:47;5.25;;;3.35;;
31594;SDS011;18200;48.726;8.892;2022-09-03T00:06:54;6.53;;;3.40;;
31594;SDS011;18200;48.726;8.892;2022-09-03T00:11:11;6.20;;;3.30;;
31594;SDS011;18200;48.726;8.892;2022-09-03T00:15:23;13.90;;;3.25;;
31594;SDS011;18200;48.726;8.892;2022-09-03T00:19:25;4.72;;;2.75;;
31594;SDS011;18200;48.726;8.892;2022-09-03T00:23:31;4.45;;;3.50;;
31594;SDS011;18200;48.726;8.892;2022-09-03T00:27:32;4.68;;;3.30;;
31594;SDS011;18200;48.726;8.892;2022-09-03T00:31:39;3.35;;;2.90;;
31594;SDS011;18200;48.726;8.892;2022-09-03T00:39:54;5.07;;;3.03;;
31594;SDS011;18200;48.726;8.892;2022-09-03T00:44:02;3.90;;;3.05;;
31594;SDS011;18200;48.726;8.892;2022-09-03T00:48:24;9.00;;;3.88;;
31594;SDS011;18200;48.726;8.892;2022-09-03T00:52:41;7.32;;;3.33;;
31594;SDS011;18200;48.726;8.892;2022-09-03T01:00:56;4.43;;;3.30;;
31594;SDS011;18200;48.726;8.892;2022-09-03T01:27:45;4.95;;;3.30;;
31594;SDS011;18200;48.726;8.892;2022-09-03T01:32:00;5.45;;;3.60;;
31594;SDS011;18200;48.726;8.892;2022-09-03T01:40:32;3.92;;;3.28;;
31594;SDS011;18200;48.726;8.892;2022-09-03T02:01:44;6.18;;;3.50;;
31594;SDS011;18200;48.726;8.892;2022-09-03T02:05:51;4.82;;;3.60;;
31594;SDS011;18200;48.726;8.892;2022-09-03T02:09:52;5.47;;;3.92;;
31594;SDS011;18200;48.726;8.892;2022-09-03T02:13:53;3.63;;;3.33;;
31594;SDS011;18200;48.726;8.892;2022-09-03T02:17:59;4.78;;;3.00;;
31594;SDS011;18200;48.726;8.892;2022-09-03T02:22:02;7.67;;;3.83;;
31594;SDS011;18200;48.726;8.892;2022-09-03T02:26:04;4.63;;;3.72;;
31594;SDS011;18200;48.726;8.892;2022-09-03T02:30:07;5.05;;;3.20;;
31594;SDS011;18200;48.726;8.892;2022-09-03T02:34:08;4.53;;;3.40;;
31594;SDS011;18200;48.726;8.892;2022-09-03T02:38:13;7.40;;;3.40;;
31594;SDS011;18200;48.726;8.892;2022-09-03T02:42:16;4.10;;;3.60;;
31594;SDS011;18200;48.726;8.892;2022-09-03T02:46:26;7.43;;;3.40;;
31594;SDS011;18200;48.726;8.892;2022-09-03T02:50:38;4.43;;;3.70;;
31594;SDS011;18200;48.726;8.892;2022-09-03T02:54:40;5.53;;;3.33;;
31594;SDS011;18200;48.726;8.892;2022-09-03T02:58:41;5.45;;;3.78;;
31594;SDS011;18200;48.726;8.892;2022-09-03T03:02:41;4.82;;;3.38;;
31594;SDS011;18200;48.726;8.892;2022-09-03T03:06:42;6.80;;;3.17;;
31594;SDS011;18200;48.726;8.892;2022-09-03T03:10:42;5.75;;;3.05;;
31594;SDS011;18200;48.726;8.892;2022-09-03T03:14:46;5.07;;;3.47;;
31594;SDS011;18200;48.726;8.892;2022-09-03T03:18:46;5.70;;;3.72;;
31594;SDS011;18200;48.726;8.892;2022-09-03T03:22:47;4.25;;;3.38;;
31594;SDS011;18200;48.726;8.892;2022-09-03T03:26:47;3.47;;;3.00;;
31594;SDS011;18200;48.726;8.892;2022-09-03T03:30:47;6.38;;;3.50;;
31594;SDS011;18200;48.726;8.892;2022-09-03T03:34:48;4.43;;;3.63;;
31594;SDS011;18200;48.726;8.892;2022-09-03T03:38:48;5.47;;;3.55;;
31594;SDS011;18200;48.726;8.892;2022-09-03T03:42:52;4.38;;;3.58;;
31594;SDS011;18200;48.726;8.892;2022-09-03T03:46:52;4.40;;;3.40;;
31594;SDS011;18200;48.726;8.892;2022-09-03T03:50:53;5.00;;;3.83;;
31594;SDS011;18200;48.726;8.892;2022-09-03T03:54:53;5.13;;;3.30;;
31594;SDS011;18200;48.726;8.892;2022-09-03T03:58:54;7.45;;;3.55;;
31594;SDS011;18200;48.726;8.892;2022-09-03T04:02:54;5.85;;;3.22;;
31594;SDS011;18200;48.726;8.892;2022-09-03T04:06:55;5.15;;;3.58;;
31594;SDS011;18200;48.726;8.892;2022-09-03T04:10:59;5.57;;;3.75;;
31594;SDS011;18200;48.726;8.892;2022-09-03T04:15:01;3.97;;;3.28;;
31594;SDS011;18200;48.726;8.892;2022-09-03T04:19:01;8.68;;;3.97;;
31594;SDS011;18200;48.726;8.892;2022-09-03T04:23:01;4.70;;;4.00;;
31594;SDS011;18200;48.726;8.892;2022-09-03T04:27:02;7.95;;;4.18;;
31594;SDS011;18200;48.726;8.892;2022-09-03T04:31:04;5.70;;;3.90;;
31594;SDS011;18200;48.726;8.892;2022-09-03T04:35:06;7.22;;;4.03;;
31594;SDS011;18200;48.726;8.892;2022-09-03T04:39:06;4.68;;;3.53;;
31594;SDS011;18200;48.726;8.892;2022-09-03T04:43:07;7.95;;;4.50;;
31594;SDS011;18200;48.726;8.892;2022-09-03T04:47:07;6.45;;;4.05;;
31594;SDS011;18200;48.726;8.892;2022-09-03T04:51:08;10.00;;;4.15;;
31594;SDS011;18200;48.726;8.892;2022-09-03T04:59:12;5.60;;;4.03;;
31594;SDS011;18200;48.726;8.892;2022-09-03T05:03:13;6.80;;;4.22;;
31594;SDS011;18200;48.726;8.892;2022-09-03T05:07:13;6.65;;;4.55;;
31594;SDS011;18200;48.726;8.892;2022-09-03T05:11:13;4.15;;;3.75;;
31594;SDS011;18200;48.726;8.892;2022-09-03T05:15:14;6.53;;;4.15;;
31594;SDS011;18200;48.726;8.892;2022-09-03T05:19:14;7.15;;;4.45;;
31594;SDS011;18200;48.726;8.892;2022-09-03T05:23:15;4.93;;;4.32;;
31594;SDS011;18200;48.726;8.892;2022-09-03T05:27:15;7.88;;;4.80;;
31594;SDS011;18200;48.726;8.892;2022-09-03T05:31:18;5.45;;;4.80;;
31594;SDS011;18200;48.726;8.892;2022-09-03T05:35:19;6.53;;;4.40;;
31594;SDS011;18200;48.726;8.892;2022-09-03T05:39:19;6.25;;;4.70;;
31594;SDS011;18200;48.726;8.892;2022-09-03T05:43:20;6.22;;;4.65;;
31594;SDS011;18200;48.726;8.892;2022-09-03T05:47:20;5.78;;;4.35;;
31594;SDS011;18200;48.726;8.892;2022-09-03T05:51:20;8.38;;;4.18;;
31594;SDS011;18200;48.726;8.892;2022-09-03T05:55:21;7.43;;;4.43;;
31594;SDS011;18200;48.726;8.892;2022-09-03T05:59:21;5.97;;;4.72;;
31594;SDS011;18200;48.726;8.892;2022-09-03T06:03:21;5.47;;;4.65;;
31594;SDS011;18200;48.726;8.892;2022-09-03T06:07:22;5.15;;;4.25;;
31594;SDS011;18200;48.726;8.892;2022-09-03T06:11:24;7.10;;;4.68;;
31594;SDS011;18200;48.726;8.892;2022-09-03T06:15:27;6.13;;;4.68;;
31594;SDS011;18200;48.726;8.892;2022-09-03T06:19:28;6.00;;;4.70;;
31594;SDS011;18200;48.726;8.892;2022-09-03T06:23:29;7.70;;;5.00;;
31594;SDS011;18200;48.726;8.892;2022-09-03T06:27:30;7.72;;;5.30;;
31594;SDS011;18200;48.726;8.892;2022-09-03T06:31:31;9.38;;;5.32;;
31594;SDS011;18200;48.726;8.892;2022-09-03T06:35:31;7.53;;;5.68;;
31594;SDS011;18200;48.726;8.892;2022-09-03T06:39:32;6.78;;;5.43;;
31594;SDS011;18200;48.726;8.892;2022-09-03T06:43:33;8.90;;;5.75;;
31594;SDS011;18200;48.726;8.892;2022-09-03T06:47:35;8.65;;;5.60;;
31594;SDS011;18200;48.726;8.892;2022-09-03T06:51:36;8.20;;;5.70;;
31594;SDS011;18200;48.726;8.892;2022-09-03T06:55:38;6.78;;;5.22;;
31594;SDS011;18200;48.726;8.892;2022-09-03T06:59:39;8.57;;;5.40;;
31594;SDS011;18200;48.726;8.892;2022-09-03T07:03:40;6.20;;;5.20;;
31594;SDS011;18200;48.726;8.892;2022-09-03T07:07:43;5.07;;;4.23;;
31594;SDS011;18200;48.726;8.892;2022-09-03T07:11:45;4.80;;;4.25;;
31594;SDS011;18200;48.726;8.892;2022-09-03T07:15:46;6.03;;;5.13;;
31594;SDS011;18200;48.726;8.892;2022-09-03T07:19:46;5.85;;;4.43;;
31594;SDS011;18200;48.726;8.892;2022-09-03T07:23:46;8.75;;;4.70;;
31594;SDS011;18200;48.726;8.892;2022-09-03T07:27:47;4.70;;;4.22;;
31594;SDS011;18200;48.726;8.892;2022-09-03T07:31:50;5.60;;;4.53;;
31594;SDS011;18200;48.726;8.892;2022-09-03T07:35:50;8.07;;;4.93;;
31594;SDS011;18200;48.726;8.892;2022-09-03T07:39:51;6.78;;;5.07;;
31594;SDS011;18200;48.726;8.892;2022-09-03T07:43:52;5.88;;;4.72;;
31594;SDS011;18200;48.726;8.892;2022-09-03T07:47:53;5.68;;;4.20;;
31594;SDS011;18200;48.726;8.892;2022-09-03T07:51:53;5.13;;;4.15;;
31594;SDS011;18200;48.726;8.892;2022-09-03T07:56:00;4.97;;;3.92;;
31594;SDS011;18200;48.726;8.892;2022-09-03T08:00:05;5.50;;;4.30;;
31594;SDS011;18200;48.726;8.892;2022-09-03T08:04:11;4.72;;;4.25;;
31594;SDS011;18200;48.726;8.892;2022-09-03T08:08:12;5.30;;;3.83;;
31594;SDS011;18200;48.726;8.892;2022-09-03T08:12:13;4.78;;;3.83;;
31594;SDS011;18200;48.726;8.892;2022-09-03T08:16:15;6.47;;;4.35;;
31594;SDS011;18200;48.726;8.892;2022-09-03T08:20:18;6.68;;;3.80;;
31594;SDS011;18200;48.726;8.892;2022-09-03T08:24:19;6.85;;;4.03;;
31594;SDS011;18200;48.726;8.892;2022-09-03T08:28:23;4.75;;;3.80;;
31594;SDS011;18200;48.726;8.892;2022-09-03T08:32:24;4.93;;;3.80;;
31594;SDS011;18200;48.726;8.892;2022-09-03T08:36:28;5.70;;;3.83;;
31594;SDS011;18200;48.726;8.892;2022-09-03T08:40:30;9.23;;;4.22;;
31594;SDS011;18200;48.726;8.892;2022-09-03T08:44:40;5.05;;;4.20;;
31594;SDS011;18200;48.726;8.892;2022-09-03T08:48:46;6.55;;;4.20;;
31594;SDS011;18200;48.726;8.892;2022-09-03T08:56:50;4.75;;;4.20;;
31594;SDS011;18200;48.726;8.892;2022-09-03T09:00:57;8.73;;;4.70;;
31594;SDS011;18200;48.726;8.892;2022-09-03T09:05:16;7.25;;;4.90;;
31594;SDS011;18200;48.726;8.892;2022-09-03T09:13:31;7.60;;;4.57;;
31594;SDS011;18200;48.726;8.892;2022-09-03T09:18:20;5.57;;;4.53;;
31594;SDS011;18200;48.726;8.892;2022-09-03T09:22:23;4.50;;;3.70;;
31594;SDS011;18200;48.726;8.892;2022-09-03T09:26:29;4.32;;;3.92;;
31594;SDS011;18200;48.726;8.892;2022-09-03T09:30:31;5.95;;;3.65;;
31594;SDS011;18200;48.726;8.892;2022-09-03T09:34:35;4.63;;;3.70;;
31594;SDS011;18200;48.726;8.892;2022-09-03T09:38:38;4.07;;;3.55;;
31594;SDS011;18200;48.726;8.892;2022-09-03T09:42:39;5.60;;;3.67;;
31594;SDS011;18200;48.726;8.892;2022-09-03T09:46:39;4.82;;;3.25;;
31594;SDS011;18200;48.726;8.892;2022-09-03T09:50:41;4.75;;;3.63;;
31594;SDS011;18200;48.726;8.892;2022-09-03T09:54:42;7.55;;;3.80;;
31594;SDS011;18200;48.726;8.892;2022-09-03T09:58:47;5.32;;;4.00;;
31594;SDS011;18200;48.726;8.892;2022-09-03T10:02:49;6.00;;;3.72;;
31594;SDS011;18200;48.726;8.892;2022-09-03T10:06:53;6.50;;;3.85;;
31594;SDS011;18200;48.726;8.892;2022-09-03T10:10:56;7.25;;;3.95;;
31594;SDS011;18200;48.726;8.892;2022-09-03T10:15:01;7.05;;;4.38;;
31594;SDS011;18200;48.726;8.892;2022-09-03T10:19:16;6.13;;;4.32;;
31594;SDS011;18200;48.726;8.892;2022-09-03T10:23:23;6.65;;;3.83;;
31594;SDS011;18200;48.726;8.892;2022-09-03T10:27:27;9.63;;;4.50;;
31594;SDS011;18200;48.726;8.892;2022-09-03T10:31:50;6.00;;;3.65;;
31594;SDS011;18200;48.726;8.892;2022-09-03T10:35:58;4.88;;;3.90;;
31594;SDS011;18200;48.726;8.892;2022-09-03T11:07:12;6.07;;;3.85;;
31594;SDS011;18200;48.726;8.892;2022-09-03T11:11:16;4.47;;;3.92;;
31594;SDS011;18200;48.726;8.892;2022-09-03T11:15:23;4.18;;;3.75;;
31594;SDS011;18200;48.726;8.892;2022-09-03T11:19:33;4.10;;;3.70;;
31594;SDS011;18200;48.726;8.892;2022-09-03T11:23:40;5.20;;;3.70;;
31594;SDS011;18200;48.726;8.892;2022-09-03T11:27:49;9.35;;;3.70;;
31594;SDS011;18200;48.726;8.892;2022-09-03T11:36:21;3.95;;;3.20;;
31594;SDS011;18200;48.726;8.892;2022-09-03T11:40:37;5.00;;;3.70;;
31594;SDS011;18200;48.726;8.892;2022-09-03T11:44:43;7.63;;;4.47;;
31594;SDS011;18200;48.726;8.892;2022-09-03T11:48:45;3.70;;;3.25;;
31594;SDS011;18200;48.726;8.892;2022-09-03T11:52:47;7.35;;;3.60;;
31594;SDS011;18200;48.726;8.892;2022-09-03T12:01:22;6.65;;;3.30;;
31594;SDS011;18200;48.726;8.892;2022-09-03T12:14:21;17.48;;;3.28;;
31594;SDS011;18200;48.726;8.892;2022-09-03T12:18:32;7.28;;;2.60;;
31594;SDS011;18200;48.726;8.892;2022-09-03T12:22:35;7.95;;;2.83;;
31594;SDS011;18200;48.726;8.892;2022-09-03T12:26:38;7.65;;;2.80;;
31594;SDS011;18200;48.726;8.892;2022-09-03T12:30:40;10.27;;;2.95;;
31594;SDS011;18200;48.726;8.892;2022-09-03T12:34:41;6.28;;;2.60;;
31594;SDS011;18200;48.726;8.892;2022-09-03T12:38:41;7.43;;;2.30;;
31594;SDS011;18200;48.726;8.892;2022-09-03T12:42:42;2.67;;;1.92;;
31594;SDS011;18200;48.726;8.892;2022-09-03T12:46:43;7.80;;;2.30;;
31594;SDS011;18200;48.726;8.892;2022-09-03T12:50:44;5.63;;;1.92;;
31594;SDS011;18200;48.726;8.892;2022-09-03T12:54:52;11.10;;;2.50;;
31594;SDS011;18200;48.726;8.892;2022-09-03T12:58:57;4.13;;;2.45;;
31594;SDS011;18200;48.726;8.892;2022-09-03T13:03:04;4.20;;;2.30;;
31594;SDS011;18200;48.726;8.892;2022-09-03T13:07:21;7.03;;;2.00;;
31594;SDS011;18200;48.726;8.892;2022-09-03T13:11:25;6.38;;;1.90;;
31594;SDS011;18200;48.726;8.892;2022-09-03T13:15:28;4.25;;;2.03;;
31594;SDS011;18200;48.726;8.892;2022-09-03T13:19:54;2.38;;;1.63;;
31594;SDS011;18200;48.726;8.892;2022-09-03T13:28:08;2.33;;;1.60;;
31594;SDS011;18200;48.726;8.892;2022-09-03T13:41:45;4.82;;;1.83;;
31594;SDS011;18200;48.726;8.892;2022-09-03T13:46:06;6.47;;;1.77;;
31594;SDS011;18200;48.726;8.892;2022-09-03T13:50:20;3.50;;;1.80;;
31594;SDS011;18200;48.726;8.892;2022-09-03T13:54:26;4.15;;;1.95;;
31594;SDS011;18200;48.726;8.892;2022-09-03T13:58:47;4.07;;;2.03;;
31594;SDS011;18200;48.726;8.892;2022-09-03T14:03:09;2.33;;;1.80;;
31594;SDS011;18200;48.726;8.892;2022-09-03T14:11:48;3.08;;;2.00;;
31594;SDS011;18200;48.726;8.892;2022-09-03T14:15:59;3.55;;;2.13;;
31594;SDS011;18200;48.726;8.892;2022-09-03T14:20:10;2.70;;;2.00;;
31594;SDS011;18200;48.726;8.892;2022-09-03T14:28:27;3.92;;;2.30;;
31594;SDS011;18200;48.726;8.892;2022-09-03T14:32:46;4.65;;;2.35;;
31594;SDS011;18200;48.726;8.892;2022-09-03T14:41:35;3.30;;;2.13;;
31594;SDS011;18200;48.726;8.892;2022-09-03T14:50:40;6.05;;;2.15;;
31594;SDS011;18200;48.726;8.892;2022-09-03T15:13:23;8.00;;;2.10;;
31594;SDS011;18200;48.726;8.892;2022-09-03T15:17:52;5.57;;;3.08;;
31594;SDS011;18200;48.726;8.892;2022-09-03T15:30:55;2.67;;;2.35;;
31594;SDS011;18200;48.726;8.892;2022-09-03T15:35:05;1.92;;;1.70;;
31594;SDS011;18200;48.726;8.892;2022-09-03T15:43:16;2.53;;;1.83;;
31594;SDS011;18200;48.726;8.892;2022-09-03T15:51:29;3.80;;;1.92;;
31594;SDS011;18200;48.726;8.892;2022-09-03T15:55:33;2.10;;;1.90;;
31594;SDS011;18200;48.726;8.892;2022-09-03T16:03:55;4.00;;;1.92;;
31594;SDS011;18200;48.726;8.892;2022-09-03T16:08:09;2.78;;;1.88;;
31594;SDS011;18200;48.726;8.892;2022-09-03T16:12:19;3.90;;;1.98;;
31594;SDS011;18200;48.726;8.892;2022-09-03T16:21:11;5.00;;;2.40;;
31594;SDS011;18200;48.726;8.892;2022-09-03T16:25:26;2.33;;;1.63;;
31594;SDS011;18200;48.726;8.892;2022-09-03T16:29:30;4.55;;;2.35;;
31594;SDS011;18200;48.726;8.892;2022-09-03T16:50:43;4.38;;;2.67;;
31594;SDS011;18200;48.726;8.892;2022-09-03T16:59:03;5.13;;;2.33;;
31594;SDS011;18200;48.726;8.892;2022-09-03T17:03:13;5.25;;;2.33;;
31594;SDS011;18200;48.726;8.892;2022-09-03T17:37:45;4.13;;;2.08;;
31594;SDS011;18200;48.726;8.892;2022-09-03T17:55:16;7.75;;;3.05;;
31594;SDS011;18200;48.726;8.892;2022-09-03T17:59:34;4.90;;;2.50;;
31594;SDS011;18200;48.726;8.892;2022-09-03T18:03:48;4.53;;;2.33;;
31594;SDS011;18200;48.726;8.892;2022-09-03T18:08:08;3.40;;;2.40;;
31594;SDS011;18200;48.726;8.892;2022-09-03T18:12:35;4.50;;;2.58;;
31594;SDS011;18200;48.726;8.892;2022-09-03T18:16:53;4.85;;;2.55;;
31594;SDS011;18200;48.726;8.892;2022-09-03T18:21:04;4.18;;;2.63;;
31594;SDS011;18200;48.726;8.892;2022-09-03T18:25:25;4.13;;;2.63;;
31594;SDS011;18200;48.726;8.892;2022-09-03T18:29:54;6.47;;;3.03;;
31594;SDS011;18200;48.726;8.892;2022-09-03T18:34:31;4.30;;;2.67;;
31594;SDS011;18200;48.726;8.892;2022-09-03T18:38:51;7.00;;;2.70;;
31594;SDS011;18200;48.726;8.892;2022-09-03T18:52:54;5.47;;;3.22;;
31594;SDS011;18200;48.726;8.892;2022-09-03T18:57:19;7.80;;;3.50;;
31594;SDS011;18200;48.726;8.892;2022-09-03T19:01:41;6.07;;;3.85;;
31594;SDS011;18200;48.726;8.892;2022-09-03T19:06:04;4.45;;;3.53;;
31594;SDS011;18200;48.726;8.892;2022-09-03T19:10:33;6.18;;;3.20;;
31594;SDS011;18200;48.726;8.892;2022-09-03T19:24:01;7.90;;;4.03;;
31594;SDS011;18200;48.726;8.892;2022-09-03T19:28:21;5.03;;;3.38;;
31594;SDS011;18200;48.726;8.892;2022-09-03T19:37:36;3.72;;;3.03;;
31594;SDS011;18200;48.726;8.892;2022-09-03T19:42:17;7.38;;;3.63;;
31594;SDS011;18200;48.726;8.892;2022-09-03T19:46:50;7.60;;;4.30;;
31594;SDS011;18200;48.726;8.892;2022-09-03T19:51:13;8.68;;;5.10;;
31594;SDS011;18200;48.726;8.892;2022-09-03T19:55:59;7.05;;;4.65;;
31594;SDS011;18200;48.726;8.892;2022-09-03T20:00:21;8.25;;;5.00;;
31594;SDS011;18200;48.726;8.892;2022-09-03T20:04:51;6.90;;;4.85;;
31594;SDS011;18200;48.726;8.892;2022-09-03T20:09:15;8.13;;;5.47;;
31594;SDS011;18200;48.726;8.892;2022-09-03T20:13:37;7.20;;;5.38;;
31594;SDS011;18200;48.726;8.892;2022-09-03T20:22:29;10.05;;;5.70;;
31594;SDS011;18200;48.726;8.892;2022-09-03T20:31:16;9.32;;;4.40;;
31594;SDS011;18200;48.726;8.892;2022-09-03T20:48:48;8.02;;;4.03;;
31594;SDS011;18200;48.726;8.892;2022-09-03T21:01:37;8.02;;;4.53;;
31594;SDS011;18200;48.726;8.892;2022-09-03T21:10:26;4.30;;;3.30;;
31594;SDS011;18200;48.726;8.892;2022-09-03T21:18:39;6.53;;;4.03;;
31594;SDS011;18200;48.726;8.892;2022-09-03T21:26:55;5.40;;;3.28;;
31594;SDS011;18200;48.726;8.892;2022-09-03T21:31:03;4.68;;;3.60;;
31594;SDS011;18200;48.726;8.892;2022-09-03T21:35:17;5.40;;;4.53;;
31594;SDS011;18200;48.726;8.892;2022-09-03T21:39:27;6.88;;;3.97;;
31594;SDS011;18200;48.726;8.892;2022-09-03T21:48:09;5.38;;;3.53;;
31594;SDS011;18200;48.726;8.892;2022-09-03T21:52:16;6.45;;;3.85;;
31594;SDS011;18200;48.726;8.892;2022-09-03T22:00:47;6.63;;;3.55;;
31594;SDS011;18200;48.726;8.892;2022-09-03T22:04:51;5.20;;;3.60;;
31594;SDS011;18200;48.726;8.892;2022-09-03T22:13:00;7.22;;;3.90;;
31594;SDS011;18200;48.726;8.892;2022-09-03T22:17:15;4.85;;;3.72;;
31594;SDS011;18200;48.726;8.892;2022-09-03T22:21:20;6.28;;;3.75;;
31594;SDS011;18200;48.726;8.892;2022-09-03T22:25:38;6.97;;;4.18;;
31594;SDS011;18200;48.726;8.892;2022-09-03T22:29:59;5.82;;;3.70;;
31594;SDS011;18200;48.726;8.892;2022-09-03T22:34:29;4.30;;;3.70;;
31594;SDS011;18200;48.726;8.892;2022-09-03T22:43:04;6.30;;;3.92;;
31594;SDS011;18200;48.726;8.892;2022-09-03T22:47:23;5.10;;;3.40;;
31594;SDS011;18200;48.726;8.892;2022-09-03T22:51:48;3.80;;;3.40;;
31594;SDS011;18200;48.726;8.892;2022-09-03T22:56:01;5.28;;;3.70;;
31594;SDS011;18200;48.726;8.892;2022-09-03T23:00:08;5.32;;;3.45;;
31594;SDS011;18200;48.726;8.892;2022-09-03T23:04:29;5.25;;;3.95;;
31594;SDS011;18200;48.726;8.892;2022-09-03T23:08:36;4.90;;;3.40;;
31594;SDS011;18200;48.726;8.892;2022-09-03T23:12:45;6.47;;;3.40;;
31594;SDS011;18200;48.726;8.892;2022-09-03T23:17:12;8.20;;;3.97;;
31594;SDS011;18200;48.726;8.892;2022-09-03T23:21:19;5.38;;;3.55;;
31594;SDS011;18200;48.726;8.892;2022-09-03T23:25:28;8.60;;;4.40;;
31594;SDS011;18200;48.726;8.892;2022-09-03T23:33:45;7.47;;;3.72;;
31594;SDS011;18200;48.726;8.892;2022-09-03T23:37:52;10.38;;;4.60;;
31594;SDS011;18200;48.726;8.892;2022-09-03T23:42:14;5.25;;;3.63;;
31594;SDS011;18200;48.726;8.892;2022-09-03T23:46:32;9.48;;;4.80;;
31594;SDS011;18200;48.726;8.892;2022-09-03T23:50:43;7.15;;;3.33;;
31594;SDS011;18200;48.726;8.892;2022-09-03T23:54:56;5.95;;;3.80;;
31594;SDS011;18200;48.726;8.892;2022-09-03T23:59:03;5.28;;;3.40;;
